Time;durP1;ratioP1;P1;durP2;ratioP2;P2;SDS_P1;SDS_P2;PMS_P1;PMS_P2;Temp;Humidity;BMP_temperature;BMP_pressure;BME280_temperature;BME280_humidity;BME280_pressure;Samples;Min_cycle;Max_cycle;Signal;HPM_P1;HPM_P2
2022/05/31 00:00:10;;;;;;;1.95;1.20;;;;;;;13.85;54.56;101300.09;5088188;28;20052;-54
2022/05/31 00:02:35;;;;;;;2.33;1.13;;;;;;;13.87;54.70;101298.19;5094113;28;20030;-58
2022/05/31 00:05:01;;;;;;;2.65;1.45;;;;;;;13.86;54.67;101301.78;5083320;28;20037;-55
2022/05/31 00:07:27;;;;;;;1.52;1.38;;;;;;;13.85;54.87;101298.31;5084101;28;20059;-53
2022/05/31 00:09:52;;;;;;;1.67;1.20;;;;;;;13.88;54.89;101299.91;5094264;28;20566;-56
2022/05/31 00:12:18;;;;;;;3.72;1.55;;;;;;;13.88;54.71;101297.25;5087473;28;20099;-51
2022/05/31 00:14:44;;;;;;;2.55;1.67;;;;;;;13.89;54.90;101298.94;5087052;28;20064;-52
2022/05/31 00:17:10;;;;;;;2.20;1.30;;;;;;;13.86;54.88;101299.13;5089263;28;20035;-54
2022/05/31 00:19:35;;;;;;;3.03;1.60;;;;;;;13.84;55.00;101304.53;5086853;28;20035;-54
2022/05/31 00:22:09;;;;;;;3.20;1.40;;;;;;;13.81;55.05;101304.72;5087129;28;20559;-54
2022/05/31 00:24:35;;;;;;;3.95;1.65;;;;;;;13.80;55.03;101308.31;5085819;28;20155;-52
2022/05/31 00:27:03;;;;;;;3.50;2.35;;;;;;;13.80;55.08;101312.75;5092190;28;20028;-56
2022/05/31 00:29:29;;;;;;;2.35;1.60;;;;;;;13.77;55.39;101303.22;5089345;28;20028;-50
2022/05/31 00:31:54;;;;;;;2.75;1.50;;;;;;;13.77;55.42;101307.66;5082320;28;20077;-51
2022/05/31 00:34:20;;;;;;;3.53;1.70;;;;;;;13.78;55.45;101310.19;5084091;28;20031;-53
2022/05/31 00:36:48;;;;;;;3.42;1.30;;;;;;;13.78;55.49;101309.38;5079035;28;20028;-54
2022/05/31 00:39:14;;;;;;;1.60;1.25;;;;;;;13.75;55.50;101307.78;5087075;28;20028;-54
2022/05/31 00:41:40;;;;;;;3.88;1.63;;;;;;;13.74;55.43;101313.13;5092605;28;20494;-51
2022/05/31 00:44:11;;;;;;;3.13;1.40;;;;;;;13.71;55.59;101315.03;5083765;28;20032;-50
2022/05/31 00:46:44;;;;;;;2.67;1.40;;;;;;;13.70;55.80;101304.56;5091220;28;20100;-51
2022/05/31 00:49:12;;;;;;;1.77;1.30;;;;;;;13.66;55.81;101319.75;5084905;28;20030;-50
2022/05/31 00:51:42;;;;;;;3.38;1.30;;;;;;;13.60;55.97;101314.84;5085367;28;20040;-49
2022/05/31 00:54:12;;;;;;;2.88;1.60;;;;;;;13.54;56.07;101307.28;5085527;28;20111;-54
2022/05/31 00:56:38;;;;;;;3.17;1.50;;;;;;;13.48;56.13;101313.78;5091462;28;20067;-50
2022/05/31 00:59:11;;;;;;;2.83;1.40;;;;;;;13.45;56.04;101314.00;5086696;28;20070;-52
2022/05/31 01:01:40;;;;;;;2.53;1.40;;;;;;;13.43;56.11;101325.59;5087439;28;20051;-54
2022/05/31 01:04:06;;;;;;;15.80;3.45;;;;;;;13.39;56.31;101322.25;5092747;28;20036;-49
2022/05/31 01:06:33;;;;;;;2.67;1.63;;;;;;;13.34;56.34;101316.38;5088806;28;20024;-53
2022/05/31 01:08:59;;;;;;;4.50;1.85;;;;;;;13.29;56.56;101327.25;5088468;28;20368;-51
2022/05/31 01:11:31;;;;;;;1.75;1.42;;;;;;;13.23;56.75;101335.56;5087844;28;20024;-52
2022/05/31 01:13:57;;;;;;;2.45;1.60;;;;;;;13.20;56.55;101330.44;5085402;28;20016;-53
2022/05/31 01:16:23;;;;;;;2.50;1.60;;;;;;;13.16;56.69;101323.63;5087694;28;20533;-52
2022/05/31 01:18:49;;;;;;;1.63;1.40;;;;;;;13.11;57.05;101324.75;5087889;28;20130;-53
2022/05/31 01:21:15;;;;;;;2.75;1.60;;;;;;;13.09;56.97;101334.56;5084325;28;20563;-55
2022/05/31 01:23:59;;;;;;;2.53;1.50;;;;;;;13.08;56.81;101324.09;5085452;28;20029;-54
2022/05/31 01:26:44;;;;;;;3.03;1.67;;;;;;;13.04;56.84;101326.06;5085393;28;20108;-53
2022/05/31 01:29:24;;;;;;;2.30;1.40;;;;;;;13.01;57.13;101331.53;5082116;28;20060;-53
2022/05/31 01:32:03;;;;;;;2.08;1.35;;;;;;;13.01;56.95;101339.44;5090095;28;20110;-52
2022/05/31 01:34:39;;;;;;;2.70;1.48;;;;;;;12.98;57.02;101331.69;5094899;28;20552;-53
2022/05/31 01:37:06;;;;;;;2.70;1.88;;;;;;;12.97;57.06;101324.72;5084353;28;20056;-54
2022/05/31 01:39:41;;;;;;;2.10;1.52;;;;;;;12.97;57.10;101322.06;5083573;28;20020;-50
2022/05/31 01:42:26;;;;;;;4.05;1.75;;;;;;;12.99;57.16;101322.84;5084856;28;20487;-55
2022/05/31 01:45:01;;;;;;;3.83;1.80;;;;;;;13.00;57.12;101329.00;5085787;28;20038;-51
2022/05/31 01:47:28;;;;;;;3.13;1.58;;;;;;;12.99;56.66;101327.28;5080015;28;21422;-52
2022/05/31 01:49:54;;;;;;;2.50;1.45;;;;;;;13.00;57.04;101321.91;5088262;28;20028;-51
2022/05/31 01:52:22;;;;;;;3.03;1.67;;;;;;;13.04;56.89;101326.06;5089134;28;20476;-53
2022/05/31 01:54:49;;;;;;;5.15;1.52;;;;;;;13.06;56.91;101329.47;5086599;28;20152;-52
2022/05/31 01:57:16;;;;;;;2.92;1.60;;;;;;;13.08;56.99;101324.09;5088309;28;20066;-51
2022/05/31 01:59:47;;;;;;;2.17;1.40;;;;;;;13.10;57.03;101330.97;5087088;28;20032;-54
2022/05/31 02:02:15;;;;;;;2.83;1.70;;;;;;;13.11;56.82;101324.75;5087624;28;20495;-50
2022/05/31 02:04:42;;;;;;;3.90;1.77;;;;;;;13.12;56.87;101325.63;5087140;28;20036;-52
2022/05/31 02:07:11;;;;;;;3.05;1.42;;;;;;;13.16;56.94;101318.34;5083519;28;20029;-55
2022/05/31 02:09:38;;;;;;;2.40;1.50;;;;;;;13.17;56.66;101325.34;5083921;28;20035;-52
2022/05/31 02:12:08;;;;;;;2.88;1.40;;;;;;;13.17;56.74;101320.88;5081775;28;20091;-54
2022/05/31 02:14:34;;;;;;;22.85;3.90;;;;;;;13.17;56.49;101325.34;5079419;28;20030;-53
2022/05/31 02:17:00;;;;;;;4.32;1.70;;;;;;;13.18;56.88;101327.03;5086873;28;20061;-52
2022/05/31 02:19:27;;;;;;;2.38;1.40;;;;;;;13.18;56.83;101321.75;5081550;28;20055;-52
2022/05/31 02:21:57;;;;;;;3.83;2.00;;;;;;;13.20;56.81;101325.16;5089222;28;20099;-51
2022/05/31 02:24:25;;;;;;;2.08;1.45;;;;;;;13.22;56.62;101328.56;5088854;28;20171;-52
2022/05/31 02:26:51;;;;;;;1.83;1.58;;;;;;;13.25;56.60;101326.59;5084073;28;20016;-52
2022/05/31 02:29:29;;;;;;;1.65;1.45;;;;;;;13.30;56.61;101326.31;5088436;28;20051;-53
2022/05/31 02:31:57;;;;;;;3.25;1.58;;;;;;;13.32;56.44;101329.72;5079831;28;20048;-53
2022/05/31 02:34:27;;;;;;;1.83;1.63;;;;;;;13.33;56.38;101326.13;5086020;28;20037;-51
2022/05/31 02:36:52;;;;;;;7.07;2.20;;;;;;;13.34;56.29;101333.13;5079522;28;20040;-51
2022/05/31 02:39:18;;;;;;;17.20;8.27;;;;;;;13.35;56.21;101318.97;5083753;28;20051;-52
2022/05/31 02:41:44;;;;;;;4.45;2.30;;;;;;;13.37;56.47;101332.06;5093859;28;20031;-52
2022/05/31 02:44:11;;;;;;;3.25;1.75;;;;;;;13.38;56.43;101320.56;5084925;27;20040;-54
2022/05/31 02:46:37;;;;;;;1.92;1.48;;;;;;;13.39;56.30;101324.91;5083065;28;20491;-54
2022/05/31 02:49:04;;;;;;;3.58;1.95;;;;;;;13.40;56.39;101322.19;5084737;28;20036;-53
2022/05/31 02:51:34;;;;;;;1.92;1.63;;;;;;;13.45;56.24;101329.00;5093989;28;20031;-51
2022/05/31 02:54:00;;;;;;;3.28;1.70;;;;;;;13.46;56.24;101325.41;5090856;28;20020;-52
2022/05/31 02:56:25;;;;;;;8.50;2.40;;;;;;;13.47;56.23;101321.81;5092723;28;20080;-52
2022/05/31 02:58:51;;;;;;;5.20;1.80;;;;;;;13.48;56.37;101319.06;5091502;28;20024;-51
2022/05/31 03:01:28;;;;;;;3.17;1.58;;;;;;;13.48;56.45;101321.72;5091404;28;20027;-53
2022/05/31 03:03:54;;;;;;;2.95;1.83;;;;;;;13.49;56.45;101327.88;5089001;28;20028;-52
2022/05/31 03:06:21;;;;;;;2.78;1.55;;;;;;;13.51;56.40;101328.63;5080780;28;20073;-56
2022/05/31 03:08:46;;;;;;;2.58;1.80;;;;;;;13.51;56.38;101321.53;5096463;28;20036;-55
2022/05/31 03:11:18;;;;;;;4.93;1.90;;;;;;;13.53;56.56;101321.47;5086543;28;20028;-53
2022/05/31 03:13:46;;;;;;;2.00;1.63;;;;;;;13.53;56.25;101316.19;5093866;28;20024;-53
2022/05/31 03:16:12;;;;;;;2.95;1.70;;;;;;;13.53;56.34;101324.09;5081718;28;20023;-53
2022/05/31 03:18:41;;;;;;;3.05;1.60;;;;;;;13.54;56.47;101320.50;5083159;28;20080;-49
2022/05/31 03:21:14;;;;;;;3.85;1.70;;;;;;;13.54;56.62;101328.44;5083332;28;20050;-52
2022/05/31 03:23:44;;;;;;;8.65;1.90;;;;;;;13.54;56.39;101324.00;5085827;28;20082;-51
2022/05/31 03:26:11;;;;;;;;;;;;;;;13.54;56.35;101328.44;5080259;28;20020;-51
2022/05/31 03:28:37;;;;;;;3.85;1.88;;;;;;;13.55;56.58;101324.84;5088895;28;19907;-51
2022/05/31 03:31:03;;;;;;;3.40;1.90;;;;;;;13.57;56.38;101323.81;5086463;28;20503;-52
2022/05/31 03:33:29;;;;;;;5.80;3.63;;;;;;;13.60;56.45;101327.22;5088777;28;20029;-53
2022/05/31 03:35:55;;;;;;;4.88;2.58;;;;;;;13.63;56.50;101329.66;5094716;28;20024;-53
2022/05/31 03:38:20;;;;;;;4.57;2.10;;;;;;;13.63;56.54;101327.88;5088155;28;20035;-49
2022/05/31 03:40:58;;;;;;;3.22;1.88;;;;;;;13.65;56.56;101325.13;5087739;28;20031;-50
2022/05/31 03:43:43;;;;;;;3.67;2.20;;;;;;;13.67;56.61;101337.34;5090312;28;20048;-53
2022/05/31 03:46:12;;;;;;;6.10;3.00;;;;;;;13.67;56.77;101334.69;5087189;28;20032;-53
2022/05/31 03:48:38;;;;;;;2.88;1.92;;;;;;;13.68;56.79;101333.75;5088421;28;20055;-56
2022/05/31 03:51:07;;;;;;;3.58;2.25;;;;;;;13.71;56.89;101345.91;5091335;28;20074;-56
2022/05/31 03:53:33;;;;;;;3.78;2.47;;;;;;;13.74;56.64;101347.53;5091544;28;20035;-55
2022/05/31 03:56:04;;;;;;;3.03;2.20;;;;;;;13.76;56.84;101340.34;5086706;28;20023;-51
2022/05/31 03:58:31;;;;;;;4.82;2.42;;;;;;;13.77;56.71;101344.69;5092389;28;20035;-52
2022/05/31 04:00:57;;;;;;;7.80;4.28;;;;;;;13.75;56.66;101339.50;5077978;28;20086;-57
2022/05/31 04:03:22;;;;;;;6.20;2.85;;;;;;;13.74;57.10;101339.59;5089701;28;20032;-58
2022/05/31 04:05:48;;;;;;;6.78;2.65;;;;;;;13.74;57.04;101344.88;5096903;28;20028;-56
2022/05/31 04:08:14;;;;;;;8.57;3.15;;;;;;;13.74;57.06;101347.53;5090671;28;20028;-57
2022/05/31 04:10:42;;;;;;;8.82;3.00;;;;;;;13.71;57.33;101344.13;5091034;28;20107;-54
2022/05/31 04:13:07;;;;;;;19.35;7.63;;;;;;;13.72;57.12;101348.47;5089784;28;20047;-57
2022/05/31 04:15:33;;;;;;;4.40;2.50;;;;;;;13.73;57.25;101349.31;5089007;28;20387;-57
2022/05/31 04:17:59;;;;;;;7.05;3.13;;;;;;;13.71;57.30;101352.03;5091231;28;20036;-55
2022/05/31 04:20:25;;;;;;;3.70;2.63;;;;;;;13.69;57.28;101359.22;5096198;28;20085;-57
2022/05/31 04:22:50;;;;;;;4.50;2.38;;;;;;;13.67;57.40;101361.13;5086617;28;20024;-55
2022/05/31 04:25:16;;;;;;;7.00;2.80;;;;;;;13.68;57.73;101348.75;5089867;28;20032;-52
2022/05/31 04:27:41;;;;;;;7.03;2.90;;;;;;;13.68;57.79;101360.19;5094015;28;20541;-57
2022/05/31 04:30:07;;;;;;;3.08;2.63;;;;;;;13.67;57.75;101362.91;5092158;28;20492;-54
2022/05/31 04:32:33;;;;;;;3.40;2.63;;;;;;;13.67;58.07;101355.84;5087276;28;20115;-51
2022/05/31 04:34:58;;;;;;;4.38;2.80;;;;;;;13.69;57.72;101358.38;5093549;28;20111;-56
2022/05/31 04:37:24;;;;;;;3.60;2.67;;;;;;;13.71;57.97;101356.50;5090365;28;20024;-55
2022/05/31 04:39:49;;;;;;;6.78;3.25;;;;;;;13.73;58.13;101359.91;5088419;28;20023;-54
2022/05/31 04:42:16;;;;;;;3.72;2.78;;;;;;;13.75;58.02;101358.03;5088507;28;20034;-52
2022/05/31 04:44:41;;;;;;;5.22;2.53;;;;;;;13.79;58.07;101361.31;5088008;28;20030;-53
2022/05/31 04:47:07;;;;;;;5.32;2.70;;;;;;;13.82;57.97;101353.19;5092229;28;20032;-54
2022/05/31 04:49:33;;;;;;;5.22;3.60;;;;;;;13.87;58.01;101365.19;5088288;28;20028;-52
2022/05/31 04:51:59;;;;;;;3.53;2.58;;;;;;;13.92;57.91;101367.56;5082178;28;20024;-55
2022/05/31 04:54:27;;;;;;;5.88;2.70;;;;;;;13.94;57.89;101370.94;5082245;28;20030;-56
2022/05/31 04:56:53;;;;;;;4.32;2.38;;;;;;;13.95;58.13;101369.16;5082505;28;20110;-54
2022/05/31 04:59:19;;;;;;;5.97;3.05;;;;;;;13.99;57.96;101376.78;5085188;28;20042;-54
2022/05/31 05:01:45;;;;;;;3.50;2.90;;;;;;;14.03;58.11;101372.19;5088591;28;20039;-53
2022/05/31 05:04:11;;;;;;;2.97;2.50;;;;;;;14.02;57.94;101373.97;5086409;28;20032;-56
2022/05/31 05:06:37;;;;;;;4.75;2.55;;;;;;;14.02;57.88;101376.59;5087406;28;20154;-55
2022/05/31 05:09:03;;;;;;;4.22;2.78;;;;;;;14.01;58.07;101374.91;5080685;28;20469;-55
2022/05/31 05:11:30;;;;;;;5.03;2.60;;;;;;;14.03;58.10;101378.31;5086554;28;20023;-54
2022/05/31 05:13:56;;;;;;;4.25;2.45;;;;;;;14.05;58.04;101372.06;5085928;28;20471;-54
2022/05/31 05:16:22;;;;;;;6.57;2.70;;;;;;;14.08;58.16;101377.19;5086132;28;20042;-58
2022/05/31 05:18:48;;;;;;;3.60;2.97;;;;;;;14.11;58.02;101377.00;5083798;28;20035;-53
2022/05/31 05:21:15;;;;;;;4.60;2.55;;;;;;;14.13;57.98;101372.47;5082476;28;20043;-55
2022/05/31 05:23:41;;;;;;;4.00;2.72;;;;;;;14.13;57.85;101367.16;5086025;28;20036;-53
2022/05/31 05:26:07;;;;;;;3.13;2.42;;;;;;;14.16;57.79;101361.66;5093520;28;20042;-55
2022/05/31 05:31:27;;;;;;;3.75;2.53;;;;;;;14.26;57.76;101368.09;5082219;28;20035;-53
2022/05/31 05:33:56;;;;;;;5.70;3.05;;;;;;;14.31;57.80;101359.84;5093320;28;20065;-56
2022/05/31 05:36:23;;;;;;;3.28;2.67;;;;;;;14.35;57.49;101360.50;5086890;28;20024;-55
2022/05/31 05:38:48;;;;;;;2.53;2.22;;;;;;;14.36;57.76;101356.91;5087864;28;20076;-55
2022/05/31 05:41:16;;;;;;;5.93;2.70;;;;;;;14.38;57.66;101353.19;5089909;28;20114;-54
2022/05/31 05:43:41;;;;;;;3.70;2.17;;;;;;;14.42;57.46;101356.53;5095025;28;20039;-55
2022/05/31 05:46:18;;;;;;;3.10;2.38;;;;;;;14.42;57.08;101356.53;5086865;28;20029;-55
2022/05/31 05:48:44;;;;;;;3.15;2.60;;;;;;;14.43;56.91;101363.50;5091293;28;20062;-55
2022/05/31 05:51:25;;;;;;;7.97;3.25;;;;;;;14.47;57.08;101370.28;5077278;28;20059;-54
2022/05/31 05:53:51;;;;;;;4.05;2.63;;;;;;;14.51;56.98;101363.84;5083992;28;20038;-55
2022/05/31 05:56:18;;;;;;;3.25;2.35;;;;;;;14.57;57.15;101373.19;5087888;28;20111;-52
2022/05/31 05:58:43;;;;;;;4.72;2.78;;;;;;;14.59;56.90;101377.47;5083409;28;20097;-51
2022/05/31 06:01:15;;;;;;;3.22;2.20;;;;;;;14.62;56.89;101376.41;5088325;28;20067;-53
2022/05/31 06:03:54;;;;;;;5.75;2.28;;;;;;;14.62;56.58;101379.91;5084151;28;20028;-53
2022/05/31 06:06:22;;;;;;;5.80;2.58;;;;;;;14.61;56.69;101380.00;5084084;28;20097;-52
2022/05/31 06:08:52;;;;;;;5.97;2.72;;;;;;;14.66;56.76;101385.00;5085294;28;20036;-53
2022/05/31 06:11:25;;;;;;;2.97;2.42;;;;;;;14.70;56.62;101386.53;5088735;28;20043;-53
2022/05/31 06:14:00;;;;;;;4.10;2.20;;;;;;;14.70;56.33;101392.69;5085137;28;20474;-54
2022/05/31 06:16:35;;;;;;;3.53;2.00;;;;;;;14.76;56.38;101394.94;5082917;28;20024;-54
2022/05/31 06:19:24;;;;;;;3.50;2.15;;;;;;;14.82;56.28;101393.69;5083349;28;20484;-51
2022/05/31 06:21:51;;;;;;;2.97;1.77;;;;;;;14.85;55.99;101389.97;5084071;28;20056;-54
2022/05/31 06:24:19;;;;;;;11.57;5.72;;;;;;;14.89;55.68;101392.34;5089492;28;20038;-52
2022/05/31 06:26:44;;;;;;;6.45;2.17;;;;;;;14.98;55.65;101390.03;5089598;28;20028;-53
2022/05/31 06:29:11;;;;;;;2.95;1.80;;;;;;;15.03;55.17;101398.53;5088559;28;20047;-56
2022/05/31 06:31:37;;;;;;;4.07;1.98;;;;;;;15.07;54.85;101394.69;5087103;28;20034;-52
2022/05/31 06:34:03;;;;;;;5.70;2.30;;;;;;;15.12;54.89;101384.66;5091504;28;20065;-50
2022/05/31 06:36:30;;;;;;;5.82;2.55;;;;;;;15.18;54.67;101392.22;5087784;28;20032;-53
2022/05/31 06:38:55;;;;;;;5.65;2.08;;;;;;;15.19;54.67;101388.59;5078524;28;20024;-50
2022/05/31 06:41:20;;;;;;;7.63;3.25;;;;;;;15.20;54.47;101405.34;5085802;28;20042;-51
2022/05/31 06:43:46;;;;;;;6.22;2.45;;;;;;;15.22;54.09;101398.97;5081914;28;20029;-53
2022/05/31 06:46:12;;;;;;;4.40;2.20;;;;;;;15.27;53.97;101400.47;5081414;28;20377;-50
2022/05/31 06:48:38;;;;;;;4.30;2.35;;;;;;;15.26;54.09;101404.09;5087564;28;20087;-51
2022/05/31 06:51:10;;;;;;;6.20;2.30;;;;;;;15.25;53.89;101395.28;5088033;28;20036;-51
2022/05/31 06:59:04;;;;;;;5.32;2.00;;;;;;;15.36;53.79;101399.84;5083630;28;20043;-52
2022/05/31 07:01:37;;;;;;;3.47;2.05;;;;;;;15.36;53.59;101397.19;5093677;28;20023;-52
2022/05/31 07:04:03;;;;;;;5.15;2.47;;;;;;;15.36;53.57;101402.50;5087717;28;20547;-50
2022/05/31 07:06:31;;;;;;;3.17;2.00;;;;;;;15.38;53.60;101403.25;5086992;28;20558;-56
2022/05/31 07:08:57;;;;;;;5.32;2.08;;;;;;;15.39;53.62;101402.31;5090104;28;20031;-53
2022/05/31 07:11:23;;;;;;;7.28;2.15;;;;;;;15.43;53.37;101406.44;5090286;28;20053;-51
2022/05/31 07:13:49;;;;;;;3.50;2.50;;;;;;;15.44;53.32;101394.91;5090691;28;20526;-50
2022/05/31 07:16:15;;;;;;;7.15;2.40;;;;;;;15.47;53.34;101396.47;5092146;28;20032;-52
2022/05/31 07:18:40;;;;;;;3.58;1.77;;;;;;;15.50;53.08;101396.28;5086908;28;20058;-54
2022/05/31 07:21:06;;;;;;;3.33;1.70;;;;;;;15.55;53.15;101399.47;5085866;28;20028;-53
2022/05/31 07:23:31;;;;;;;3.85;1.75;;;;;;;15.55;52.30;101399.47;5086854;28;20032;-54
2022/05/31 07:25:59;;;;;;;3.60;1.55;;;;;;;15.50;51.74;101396.28;5100296;28;20488;-53
2022/05/31 07:28:26;;;;;;;2.58;1.40;;;;;;;15.44;51.35;101401.97;5087787;28;20036;-53
2022/05/31 07:30:52;;;;;;;3.85;1.92;;;;;;;15.36;51.17;101394.53;5092259;28;20605;-54
2022/05/31 07:33:17;;;;;;;2.47;1.40;;;;;;;15.34;51.38;101396.47;5096307;28;20036;-52
2022/05/31 07:35:42;;;;;;;2.90;1.42;;;;;;;15.36;50.74;101399.84;5097286;28;20035;-53
2022/05/31 07:38:09;;;;;;;8.30;2.00;;;;;;;15.39;50.72;101399.66;5087453;28;20085;-54
2022/05/31 07:40:35;;;;;;;4.07;1.60;;;;;;;15.40;50.28;101398.69;5092455;28;20180;-59
2022/05/31 07:43:01;;;;;;;2.80;1.40;;;;;;;15.43;50.31;101401.16;5088994;28;20066;-56
2022/05/31 07:45:27;;;;;;;2.40;1.52;;;;;;;15.44;49.93;101392.25;5096479;28;20023;-49
2022/05/31 07:47:53;;;;;;;3.67;1.50;;;;;;;15.44;49.93;101394.91;5094757;28;20028;-49
2022/05/31 07:50:19;;;;;;;3.35;1.02;;;;;;;15.45;49.44;101398.38;5091271;28;20457;-51
2022/05/31 07:52:44;;;;;;;2.92;1.45;;;;;;;15.47;49.14;101392.03;5087568;28;20032;-50
2022/05/31 07:55:10;;;;;;;3.65;1.60;;;;;;;15.50;49.08;101390.97;5091804;28;20035;-52
2022/05/31 07:58:36;;;;;;;8.48;1.50;;;;;;;15.49;48.84;101394.56;5093969;28;20016;-52
2022/05/31 08:00:31;;;;;;;4.35;1.52;;;;;;;15.47;48.99;101383.22;5080236;28;20436;-53
2022/05/31 08:02:56;;;;;;;1.55;1.17;;;;;;;15.46;48.83;101377.06;5092323;28;21324;-51
2022/05/31 08:05:22;;;;;;;2.17;1.30;;;;;;;15.49;48.75;101383.97;5097529;28;20107;-53
2022/05/31 08:07:49;;;;;;;2.13;1.00;;;;;;;15.54;48.76;101380.03;5092211;28;20047;-53
2022/05/31 08:10:17;;;;;;;2.33;1.30;;;;;;;15.61;48.57;101382.28;5090717;28;20024;-53
2022/05/31 08:12:42;;;;;;;1.80;1.23;;;;;;;15.66;48.46;101380.13;5090046;28;20023;-50
2022/05/31 08:15:08;;;;;;;1.90;1.08;;;;;;;15.73;48.28;101381.44;5096310;28;20035;-52
2022/05/31 08:17:34;;;;;;;1.67;1.17;;;;;;;15.78;48.04;101392.59;5087319;28;20032;-54
2022/05/31 08:19:59;;;;;;;2.03;1.05;;;;;;;15.80;47.84;101385.38;5100981;28;20501;-50
2022/05/31 08:22:24;;;;;;;2.10;1.20;;;;;;;15.73;47.79;101380.59;5093667;28;20039;-53
2022/05/31 08:24:50;;;;;;;2.60;1.20;;;;;;;15.70;48.00;101376.31;5095943;28;20452;-51
2022/05/31 08:27:15;;;;;;;1.42;1.00;;;;;;;15.74;47.98;101383.13;5094901;28;20028;-51
2022/05/31 08:29:42;;;;;;;4.90;1.60;;;;;;;15.79;47.72;101375.72;5089798;28;20040;-56
2022/05/31 08:32:08;;;;;;;3.80;1.15;;;;;;;15.81;47.61;101384.38;5091557;28;20058;-52
2022/05/31 08:34:33;;;;;;;3.47;1.17;;;;;;;15.83;47.50;101382.47;5090879;28;20024;-51
2022/05/31 08:36:59;;;;;;;3.10;1.35;;;;;;;15.89;47.67;101380.38;5089195;28;20514;-53
2022/05/31 08:39:24;;;;;;;2.33;1.10;;;;;;;15.95;47.26;101379.97;5089850;28;20167;-55
2022/05/31 08:42:03;;;;;;;2.15;1.08;;;;;;;16.01;47.34;101371.56;5095543;28;20471;-50
2022/05/31 08:44:59;;;;;;;1.00;0.80;;;;;;;16.10;47.13;101372.72;5088789;28;20035;-53
2022/05/31 08:47:58;;;;;;;3.15;1.65;;;;;;;16.16;46.86;101374.94;5098390;28;20096;-51
2022/05/31 08:53:42;;;;;;;3.47;1.20;;;;;;;16.30;46.44;101365.97;5091613;28;20081;-53
2022/05/31 08:59:17;;;;;;;2.38;0.88;;;;;;;16.45;45.81;101372.81;5084463;28;20462;-55
2022/05/31 09:01:52;;;;;;;3.58;1.08;;;;;;;16.51;45.72;101354.75;5089258;28;20030;-51
2022/05/31 09:04:26;;;;;;;1.48;0.90;;;;;;;16.57;45.64;101362.25;5083718;28;20149;-54
2022/05/31 09:06:58;;;;;;;5.05;1.10;;;;;;;16.61;45.17;101367.25;5090298;28;20024;-50
2022/05/31 09:09:28;;;;;;;1.52;0.80;;;;;;;16.65;44.95;101359.91;5091220;28;20055;-53
2022/05/31 09:12:17;;;;;;;2.10;0.90;;;;;;;16.71;45.02;101363.91;5093446;28;20054;-50
2022/05/31 09:14:42;;;;;;;3.50;1.13;;;;;;;16.74;44.82;101361.84;5092601;28;20055;-52
2022/05/31 09:17:45;;;;;;;1.90;1.02;;;;;;;16.77;44.62;101351.00;5090229;28;20063;-54
2022/05/31 09:20:49;;;;;;;2.25;1.00;;;;;;;16.79;44.60;101358.03;5077899;28;20089;-51
2022/05/31 09:23:21;;;;;;;3.58;1.10;;;;;;;16.85;44.43;101360.22;5085631;28;20085;-50
2022/05/31 09:25:57;;;;;;;4.38;1.08;;;;;;;16.91;44.10;101362.41;5088456;28;20046;-52
2022/05/31 09:28:30;;;;;;;1.48;1.00;;;;;;;16.95;43.76;101355.09;5097820;28;20028;-54
2022/05/31 09:30:57;;;;;;;4.15;1.25;;;;;;;17.01;43.71;101351.97;5082479;28;20024;-51
2022/05/31 09:33:35;;;;;;;2.72;0.80;;;;;;;17.09;43.37;101348.72;5094968;28;20061;-49
2022/05/31 09:36:19;;;;;;;5.85;1.45;;;;;;;17.15;42.94;101342.97;5092002;28;20445;-53
2022/05/31 09:38:48;;;;;;;1.55;0.90;;;;;;;17.22;42.50;101349.50;5089662;28;20050;-50
2022/05/31 09:41:25;;;;;;;3.43;1.00;;;;;;;17.28;42.36;101346.38;5084884;28;20115;-49
2022/05/31 09:43:57;;;;;;;3.20;0.90;;;;;;;17.35;42.08;101336.94;5090988;28;20282;-50
2022/05/31 09:47:02;;;;;;;2.47;1.00;;;;;;;17.43;41.81;101341.66;5091289;28;20031;-52
2022/05/31 09:49:39;;;;;;;7.22;1.83;;;;;;;17.48;41.64;101339.50;5050371;28;20040;-50
2022/05/31 09:52:20;;;;;;;5.55;1.92;;;;;;;17.47;41.43;101336.97;5090535;28;20036;-53
2022/05/31 09:57:51;;;;;;;3.00;0.95;;;;;;;17.49;41.57;101337.69;5088627;28;20039;-54
2022/05/31 10:00:20;;;;;;;1.50;0.93;;;;;;;17.52;41.34;101334.78;5092881;28;20028;-53
2022/05/31 10:02:58;;;;;;;1.83;0.90;;;;;;;17.51;41.08;101318.00;5090669;28;20039;-54
2022/05/31 10:05:23;;;;;;;1.95;0.90;;;;;;;17.57;40.86;101324.66;5089756;28;20028;-52
2022/05/31 10:07:49;;;;;;;3.92;1.13;;;;;;;17.63;40.72;101321.47;5093368;28;20036;-52
2022/05/31 10:10:27;;;;;;;3.30;1.30;;;;;;;17.72;40.50;101319.09;5084652;28;20028;-49
2022/05/31 10:13:04;;;;;;;4.05;1.00;;;;;;;17.83;40.36;101316.41;5093211;28;20034;-56
2022/05/31 10:15:37;;;;;;;2.28;1.40;;;;;;;17.95;40.28;101318.09;5084027;28;20032;-53
2022/05/31 10:18:06;;;;;;;2.92;0.85;;;;;;;18.05;40.15;101314.72;5090557;28;20020;-52
2022/05/31 10:20:33;;;;;;;2.10;0.75;;;;;;;18.11;39.90;101315.09;5088060;28;20027;-52
2022/05/31 10:23:11;;;;;;;1.92;1.05;;;;;;;18.12;39.56;101313.25;5091307;28;20044;-51
2022/05/31 10:25:44;;;;;;;1.83;1.00;;;;;;;18.10;39.55;101320.50;5090178;28;20027;-53
2022/05/31 10:28:30;;;;;;;1.90;1.00;;;;;;;18.07;39.50;101315.47;5090063;28;20040;-57
2022/05/31 10:31:21;;;;;;;2.22;0.90;;;;;;;18.06;38.97;101306.59;5091524;28;20039;-53
2022/05/31 10:33:56;;;;;;;3.47;1.17;;;;;;;18.04;38.94;101310.38;5095038;28;20046;-53
2022/05/31 10:36:24;;;;;;;3.20;0.90;;;;;;;18.00;39.11;101312.41;5086780;28;20142;-53
2022/05/31 10:38:50;;;;;;;2.25;1.10;;;;;;;18.04;39.01;101307.72;5084674;28;20073;-58
2022/05/31 10:41:29;;;;;;;1.85;0.88;;;;;;;18.11;38.40;101299.09;5088395;28;20495;-53
2022/05/31 10:44:10;;;;;;;3.72;1.00;;;;;;;18.17;38.63;101292.44;5084648;28;20036;-54
2022/05/31 10:46:38;;;;;;;2.55;0.98;;;;;;;18.25;38.54;101305.94;5093129;28;20134;-55
2022/05/31 10:49:15;;;;;;;3.10;0.95;;;;;;;18.31;38.27;101301.94;5093092;28;20031;-54
2022/05/31 10:52:10;;;;;;;1.52;1.20;;;;;;;18.33;38.14;101302.66;5085849;28;20470;-50
2022/05/31 10:54:48;;;;;;;3.55;1.30;;;;;;;18.37;37.80;101298.78;5085767;28;20032;-53
2022/05/31 10:57:27;;;;;;;2.65;1.20;;;;;;;18.33;37.62;101293.84;5088738;28;21142;-55
2022/05/31 11:00:15;;;;;;;4.25;0.95;;;;;;;18.35;37.74;101283.91;5082671;28;20031;-51
2022/05/31 11:03:04;;;;;;;3.80;1.00;;;;;;;18.42;37.80;101290.41;5092554;28;20038;-50
2022/05/31 11:05:45;;;;;;;2.70;1.10;;;;;;;18.49;37.68;101285.41;5074475;28;20043;-50
2022/05/31 11:14:09;;;;;;;3.20;1.33;;;;;;;18.72;37.75;101278.16;5091528;28;20069;-54
2022/05/31 11:16:57;;;;;;;1.40;1.00;;;;;;;18.82;38.02;101271.09;5087665;28;20024;-51
2022/05/31 11:19:33;;;;;;;3.50;1.45;;;;;;;18.97;37.99;101274.31;5085879;28;20055;-54
2022/05/31 11:22:16;;;;;;;2.90;1.45;;;;;;;19.13;37.84;101275.66;5086316;28;20105;-51
2022/05/31 11:25:23;;;;;;;3.50;1.30;;;;;;;19.27;37.36;101280.66;5082649;28;20040;-53
2022/05/31 11:28:18;;;;;;;25.27;6.38;;;;;;;19.35;37.24;101277.31;5045013;28;20025;-54
2022/05/31 11:31:12;;;;;;;3.40;1.00;;;;;;;19.41;36.98;101273.28;5037990;28;20034;-54
2022/05/31 11:33:43;;;;;;;1.98;0.90;;;;;;;19.44;36.84;101281.84;5080761;28;20406;-55
2022/05/31 11:36:27;;;;;;;2.60;1.10;;;;;;;19.37;36.48;101286.03;5086502;28;20035;-51
2022/05/31 11:38:56;;;;;;;1.52;0.90;;;;;;;19.30;36.36;101279.53;5089767;28;20027;-54
2022/05/31 11:41:38;;;;;;;2.55;0.95;;;;;;;19.25;36.52;101279.09;5092408;28;20392;-56
2022/05/31 11:44:34;;;;;;;4.80;0.90;;;;;;;19.18;36.36;101278.78;5090591;28;20032;-55
2022/05/31 11:47:15;;;;;;;1.92;1.10;;;;;;;19.14;36.70;101278.19;5080745;28;20040;-55
2022/05/31 11:49:40;;;;;;;1.80;1.08;;;;;;;19.18;36.82;101273.47;5087202;28;20111;-51
2022/05/31 11:52:56;;;;;;;2.40;1.00;;;;;;;19.26;36.68;101268.28;5085345;28;20454;-54
2022/05/31 11:55:31;;;;;;;3.33;1.08;;;;;;;19.32;36.67;101272.25;5004236;28;20049;-55
2022/05/31 11:58:07;;;;;;;2.25;1.10;;;;;;;19.37;36.32;101263.84;5004672;28;20046;-54
2022/05/31 12:00:59;;;;;;;5.90;1.77;;;;;;;19.42;36.36;101257.16;5068183;28;20040;-56
2022/05/31 12:03:43;;;;;;;7.75;1.20;;;;;;;19.48;36.32;101259.25;5081687;28;20047;-53